Map

Track Data

SID SEASON NUMBER BASIN SUBBASIN NAME ISO_TIME NATURE LAT LON WMO_WIND WMO_PRES WMO_AGENCY TRACK_TYPE DIST2LAND LANDFALL IFLAG USA_AGENCY USA_ATCF_ID USA_LAT USA_LON USA_RECORD USA_STATUS USA_WIND USA_PRES USA_SSHS USA_R34_NE USA_R34_SE USA_R34_SW USA_R34_NW USA_R50_NE USA_R50_SE USA_R50_SW USA_R50_NW USA_R64_NE USA_R64_SE USA_R64_SW USA_R64_NW USA_POCI USA_ROCI USA_RMW USA_EYE TOKYO_LAT TOKYO_LON TOKYO_GRADE TOKYO_WIND TOKYO_PRES TOKYO_R50_DIR TOKYO_R50_LONG TOKYO_R50_SHORT TOKYO_R30_DIR TOKYO_R30_LONG TOKYO_R30_SHORT TOKYO_LAND CMA_LAT CMA_LON CMA_CAT CMA_WIND CMA_PRES HKO_LAT HKO_LON HKO_CAT HKO_WIND HKO_PRES NEWDELHI_LAT NEWDELHI_LON NEWDELHI_GRADE NEWDELHI_WIND NEWDELHI_PRES NEWDELHI_CI NEWDELHI_DP NEWDELHI_POCI REUNION_LAT REUNION_LON REUNION_TYPE REUNION_WIND REUNION_PRES REUNION_TNUM REUNION_CI REUNION_RMW REUNION_R34_NE REUNION_R34_SE REUNION_R34_SW REUNION_R34_NW REUNION_R50_NE REUNION_R50_SE REUNION_R50_SW REUNION_R50_NW REUNION_R64_NE REUNION_R64_SE REUNION_R64_SW REUNION_R64_NW BOM_LAT BOM_LON BOM_TYPE BOM_WIND BOM_PRES BOM_TNUM BOM_CI BOM_RMW BOM_R34_NE BOM_R34_SE BOM_R34_SW BOM_R34_NW BOM_R50_NE BOM_R50_SE BOM_R50_SW BOM_R50_NW BOM_R64_NE BOM_R64_SE BOM_R64_SW BOM_R64_NW BOM_ROCI BOM_POCI BOM_EYE BOM_POS_METHOD BOM_PRES_METHOD NADI_LAT NADI_LON NADI_CAT NADI_WIND NADI_PRES WELLINGTON_LAT WELLINGTON_LON WELLINGTON_WIND WELLINGTON_PRES DS824_LAT DS824_LON DS824_STAGE DS824_WIND DS824_PRES TD9636_LAT TD9636_LON TD9636_STAGE TD9636_WIND TD9636_PRES TD9635_LAT TD9635_LON TD9635_WIND TD9635_PRES TD9635_ROCI NEUMANN_LAT NEUMANN_LON NEUMANN_CLASS NEUMANN_WIND NEUMANN_PRES MLC_LAT MLC_LON MLC_CLASS MLC_WIND MLC_PRES USA_GUST BOM_GUST BOM_GUST_PER REUNION_GUST REUNION_GUST_PER USA_SEAHGT USA_SEARAD_NE USA_SEARAD_SE USA_SEARAD_SW USA_SEARAD_NW STORM_SPEED STORM_DIR
1907262N25281 1907 50 NA NA NOT_NAMED 1907-09-18 12:00:00 TS 25.0000 -79.0000 30 hurdat_atl main 67 67 O_____________ hurdat_atl AL021907 25.0000 -79.0000 TD 30 -1 13 294
1907262N25281 1907 50 NA NA NOT_NAMED 1907-09-18 15:00:00 TS 25.2605 -79.6469 main 73 0 P_____________ AL021907 25.2605 -79.6469 TD 30 -1 13 293
1907262N25281 1907 50 NA NA NOT_NAMED 1907-09-18 18:00:00 TS 25.5000 -80.3000 30 hurdat_atl main 0 0 O_____________ hurdat_atl AL021907 25.5000 -80.3000 TD 30 -1 13 291
1907262N25281 1907 50 NA NA NOT_NAMED 1907-09-18 21:00:00 TS 25.7073 -80.9578 main 0 0 P_____________ AL021907 25.7073 -80.9578 TD 30 -1 12 289
1907262N25281 1907 50 NA GM NOT_NAMED 1907-09-19 00:00:00 TS 25.9000 -81.6000 30 hurdat_atl main 0 0 O_____________ hurdat_atl AL021907 25.9000 -81.6000 TD 30 -1 12 289
1907262N25281 1907 50 NA GM NOT_NAMED 1907-09-19 03:00:00 TS 26.0997 -82.2077 main 39 39 P_____________ AL021907 26.0997 -82.2077 TD 32 -1 12 290
1907262N25281 1907 50 NA GM NOT_NAMED 1907-09-19 06:00:00 TS 26.3000 -82.8000 35 hurdat_atl main 74 74 O_____________ hurdat_atl AL021907 26.3000 -82.8000 TS 35 0 12 290
1907262N25281 1907 50 NA GM NOT_NAMED 1907-09-19 09:00:00 TS 26.4999 -83.4151 main 114 114 P_____________ AL021907 26.4999 -83.4151 TS 35 0 11 290
1907262N25281 1907 50 NA GM NOT_NAMED 1907-09-19 12:00:00 TS 26.7000 -84.0000 35 hurdat_atl main 153 153 O_____________ hurdat_atl AL021907 26.7000 -84.0000 TS 35 0 11 292
1907262N25281 1907 50 NA GM NOT_NAMED 1907-09-19 15:00:00 TS 26.8998 -84.5302 main 193 193 P_____________ AL021907 26.8998 -84.5302 TS 35 0 10 294
1907262N25281 1907 50 NA GM NOT_NAMED 1907-09-19 18:00:00 TS 27.1000 -85.0000 35 hurdat_atl main 225 225 O_____________ hurdat_atl AL021907 27.1000 -85.0000 TS 35 0 9 297
1907262N25281 1907 50 NA GM NOT_NAMED 1907-09-19 21:00:00 TS 27.2999 -85.4301 main 255 247 P_____________ AL021907 27.2999 -85.4301 TS 37 0 8 299
1907262N25281 1907 50 NA GM NOT_NAMED 1907-09-20 00:00:00 TS 27.5000 -85.8000 40 hurdat_atl main 248 230 O_____________ hurdat_atl AL021907 27.5000 -85.8000 TS 40 0 7 303
1907262N25281 1907 50 NA GM NOT_NAMED 1907-09-20 03:00:00 TS 27.6998 -86.1152 main 233 219 P_____________ AL021907 27.6998 -86.1152 TS 40 0 7 307
1907262N25281 1907 50 NA GM NOT_NAMED 1907-09-20 06:00:00 TS 27.9000 -86.4000 40 hurdat_atl main 223 213 O_____________ hurdat_atl AL021907 27.9000 -86.4000 TS 40 0 7 308
1907262N25281 1907 50 NA GM NOT_NAMED 1907-09-20 09:00:00 TS 28.0999 -86.7001 main 218 213 P_____________ AL021907 28.0999 -86.7001 TS 40 0 7 307
1907262N25281 1907 50 NA GM NOT_NAMED 1907-09-20 12:00:00 TS 28.3000 -87.0000 40 hurdat_atl main 214 178 O_____________ hurdat_atl AL021907 28.3000 -87.0000 TS 40 0 7 307
1907262N25281 1907 50 NA GM NOT_NAMED 1907-09-20 15:00:00 TS 28.4999 -87.3001 main 178 143 P_____________ AL021907 28.4999 -87.3001 TS 40 0 7 307
1907262N25281 1907 50 NA GM NOT_NAMED 1907-09-20 18:00:00 TS 28.7000 -87.6000 40 hurdat_atl main 143 109 O_____________ hurdat_atl AL021907 28.7000 -87.6000 TS 40 0 7 307
1907262N25281 1907 50 NA GM NOT_NAMED 1907-09-20 21:00:00 TS 28.9000 -87.9076 main 109 77 P_____________ AL021907 28.9000 -87.9076 TS 40 0 7 307
1907262N25281 1907 50 NA GM NOT_NAMED 1907-09-21 00:00:00 TS 29.1000 -88.2000 40 hurdat_atl main 77 53 O_____________ hurdat_atl AL021907 29.1000 -88.2000 TS 40 0 6 308
1907262N25281 1907 50 NA GM NOT_NAMED 1907-09-21 03:00:00 TS 29.2925 -88.4726 main 53 51 P_____________ AL021907 29.2925 -88.4726 TS 40 0 6 313
1907262N25281 1907 50 NA GM NOT_NAMED 1907-09-21 06:00:00 TS 29.5000 -88.7000 40 hurdat_atl main 51 40 O_____________ hurdat_atl AL021907 29.5000 -88.7000 TS 40 0 6 321
1907262N25281 1907 50 NA GM NOT_NAMED 1907-09-21 09:00:00 TS 29.7443 -88.8991 main 40 28 P_____________ AL021907 29.7443 -88.8991 TS 40 0 6 332
1907262N25281 1907 50 NA GM NOT_NAMED 1907-09-21 12:00:00 TS 30.0000 -89.0000 40 hurdat_atl main 30 22 O_____________ hurdat_atl AL021907 30.0000 -89.0000 TS 40 0 5 354
1907262N25281 1907 50 NA GM NOT_NAMED 1907-09-21 15:00:00 TS 30.2266 -88.9414 main 22 0 P_____________ AL021907 30.2266 -88.9414 TS 40 0 5 12
1907262N25281 1907 50 NA GM NOT_NAMED 1907-09-21 17:00:00 TS 30.4000 -88.9000 40 hurdat_atl main 0 0 O_____________ hurdat_atl AL021907 30.4000 -88.9000 L TS 40 0 6 9
1907262N25281 1907 50 NA NA NOT_NAMED 1907-09-21 18:00:00 TS 30.5000 -88.9000 35 hurdat_atl main 0 0 O_____________ hurdat_atl AL021907 30.5000 -88.9000 TS 35 0 5 0
1907262N25281 1907 50 NA NA NOT_NAMED 1907-09-21 21:00:00 TS 30.7635 -88.8814 main 0 0 P_____________ AL021907 30.7635 -88.8814 TS 35 0 5 10
1907262N25281 1907 50 NA NA NOT_NAMED 1907-09-22 00:00:00 TS 31.0000 -88.8000 35 hurdat_atl main 0 0 O_____________ hurdat_atl AL021907 31.0000 -88.8000 TS 35 0 5 23
1907262N25281 1907 50 NA NA NOT_NAMED 1907-09-22 03:00:00 TS 31.2424 -88.6522 main 0 0 P_____________ AL021907 31.2424 -88.6522 TS 35 0 6 34
1907262N25281 1907 50 NA NA NOT_NAMED 1907-09-22 06:00:00 TS 31.5000 -88.4000 35 hurdat_atl main 0 0 O_____________ hurdat_atl AL021907 31.5000 -88.4000 TS 35 0 7 43
1907262N25281 1907 50 NA NA NOT_NAMED 1907-09-22 09:00:00 TS 31.7772 -88.0669 main 0 0 P_____________ AL021907 31.7772 -88.0669 TS 35 0 9 49
1907262N25281 1907 50 NA NA NOT_NAMED 1907-09-22 12:00:00 TS 32.1000 -87.6000 35 hurdat_atl main 0 0 O_____________ hurdat_atl AL021907 32.1000 -87.6000 TS 35 0 11 52
1907262N25281 1907 50 NA NA NOT_NAMED 1907-09-22 15:00:00 TS 32.4773 -87.0096 main 0 0 P_____________ AL021907 32.4773 -87.0096 TS 35 0 14 54
1907262N25281 1907 50 NA NA NOT_NAMED 1907-09-22 18:00:00 ET 32.9000 -86.3000 35 hurdat_atl main 0 0 O_____________ hurdat_atl AL021907 32.9000 -86.3000 EX 35 -4 15 55
1907262N25281 1907 50 NA NA NOT_NAMED 1907-09-22 21:00:00 ET 33.3423 -85.5295 main 0 0 P_____________ AL021907 33.3423 -85.5295 EX 35 -4 16 56
1907262N25281 1907 50 NA NA NOT_NAMED 1907-09-23 00:00:00 ET 33.8000 -84.7000 35 hurdat_atl main 0 0 O_____________ hurdat_atl AL021907 33.8000 -84.7000 EX 35 -4 17 57
1907262N25281 1907 50 NA NA NOT_NAMED 1907-09-23 03:00:00 ET 34.2421 -83.8565 main 0 0 P_____________ AL021907 34.2421 -83.8565 EX 35 -4 17 57
1907262N25281 1907 50 NA NA NOT_NAMED 1907-09-23 06:00:00 ET 34.7000 -83.0000 35 hurdat_atl main 0 0 O_____________ hurdat_atl AL021907 34.7000 -83.0000 EX 35 -4 17 56
1907262N25281 1907 50 NA NA NOT_NAMED 1907-09-23 09:00:00 ET 35.1844 -82.1489 main 0 0 P_____________ AL021907 35.1844 -82.1489 EX 35 -4 17 54
1907262N25281 1907 50 NA NA NOT_NAMED 1907-09-23 12:00:00 ET 35.7000 -81.3000 35 hurdat_atl main 0 0 O_____________ hurdat_atl AL021907 35.7000 -81.3000 EX 35 -4 17 52
1907262N25281 1907 50 NA NA NOT_NAMED 1907-09-23 15:00:00 ET 36.2437 -80.4525 main 0 0 P_____________ AL021907 36.2437 -80.4525 EX 32 -4 18 51
1907262N25281 1907 50 NA NA NOT_NAMED 1907-09-23 18:00:00 ET 36.8000 -79.6000 30 hurdat_atl main 0 O_____________ hurdat_atl AL021907 36.8000 -79.6000 EX 30 -4 18 51

About IBTrACS Database

This database is a web-friendly format of International Best Track Archive for Climate Stewardship (IBTrACS), a global best track data archive curated by NOAA dating back to 1842.

Updated: 2021-10-08